Epping, New Hampshire
Current Conditions -  °F | °C
As of 3:58 PM on Saturday 22 Nov 2014 (Local Time) from KPSM Reporting Station
Broken Clouds Broken Clouds  
Wind Chill: 33°   Ceiling: 25000
Heat Index: 37°   Visibility: 10mi
Dew Point:   Wind: 5mph
Humidity: 31%   Direction: 230°SW
Pressure: 30.08"   Gusts: NA
Location:  43.04°N, 71.08°W
Report Text: KPSM 222058Z 23004KT 10SM SCT150 BKN250 03/M13 A3008 RMK AO2A SLP191 T00251130 57030
Loading
Personal Weather Stations






























Interactive Weather Map New forecast layout! Learn more

10-Day Weather Forecast

Advertisements
Track Severe Weather on mobile